Frazer, MT (59225)

6:48 AM MDT on July 25, 2014 (GMT -0600)
nashua (KMTNASHU2) Elev 2156 ft | 48.11 °N, 106.45 °W | Change Station

Current weather conditions updated 48 minutes ago

Clear
Clear
48.5 °F
Feels Like 48 °F
N
0.0
Wind Variable Wind from North
Gusts 0.0 mph

Today is forecast to be Much Cooler than yesterday.

Today
High -- | Low -- °F
--% Chance of Precip.
Yesterday
High -- | Low -- °F
Precip. -- in
5:31 AM 8:49 PM
Waning Crescent, 2% visible
Pressure 29.89 in
Visibility 10.0 miles
Clouds Clear
Windchill 48 °F
Dew Point 33 °F
Humidity 54%
Rainfall 0.00 in
Snow Depth Not available.
UV 0 out of 12
Pollen 5.70 out of 12
Air Quality Not available.
Flu Activity Not available.
METAR KOLF 251153Z AUTO 00000KT 10SM CLR 09/08 A2990 RMK AO2 SLP120 70020 T00940078 10122 20083 53005

More Conditions Fewer Conditions

Pressure 29.89 in
Visibility 10.0 miles
Clouds Clear
Windchill 48 °F
Dew Point 33 °F
Humidity 54%
Rainfall 0.00 in
Snow Depth Not available.
UV 0 out of 12
Pollen 5.70 out of 12
Air Quality Not available.
Flu Activity Not available.
METAR KOLF 251153Z AUTO 00000KT 10SM CLR 09/08 A2990 RMK AO2 SLP120 70020 T00940078 10122 20083 53005

More Conditions Fewer Conditions

10-Day Weather Forecast

Almanac

Astronomy

Jul. 25, 2014 Rise Set
Actual Time 5:31 AM MDT 8:49 PM MDT
Civil Twilight 4:53 AM MDT 9:26 PM MDT
Nautical Twilight 4:04 AM MDT 10:15 PM MDT
Astronomical Twilight 3:00 AM MDT 11:18 PM MDT
Moon 4:36 AM MDT 7:43 PM MDT
Length of Visible Light 16h 32m
Length of Day
15h 17m
Tomorrow will be 2m 27s shorter.
Waning Crescent, 2% of the Moon is Illuminated
Today
Waning Crescent
Jul 26
New
Aug 3
First Quarter
Aug 10
Full
Aug 17
Last Quarter

Today's Extremes

State Highs State Lows

Community

WunderPhotos

Upload Photos

1,737,308 photos uploaded!

Nearby

Snow Depth

Station Depth Elevation
Rocky Boy 0 in 4700 ft
Crystal Lake 0 in 6050 ft
Daisy Peak 0 in 7600 ft
Spur Park 0 in 8100 ft
Deadman Creek 0 in 6450 ft

Earthquake Activity

City Distance Mag. Time & Date
No recent earthquake activity has been reported nearby.
Minimum magnitude displayed is 2.5.

Coastal Water Temperatures

Place Temperature
No Stations Reporting

Nearby Weather Stations

Station Location Temp. Windchill Dew Point Humidity Wind Precip. Elev Updated Type
Downtown, Wolf Point, MT 50.0 °F 49 °F 44 °F 80% WSW  at  4.0 mph 0.00 in / hr 2001 ft 6:47 AM CDT Normal
nashua, Nashua, MT 48.5 °F 48 °F 33 °F 54% North  at  0.0 mph 0.00 in / hr 2156 ft 6:00 AM MDT Normal
Sturgeon Bay, Fort Peck, MT 62.2 °F - 38 °F 40% SW  at  6.0 mph 0.00 in / hr 2287 ft 6:40 AM MDT Normal

Show More Stations Show Fewer Stations